sensor_id;sensor_type;location;lat;lon;timestamp;noise_LAeq;noise_LA_min;noise_LA_max;noise_LA01;noise_LA95
186;Laerm;55473;48.800;9.002;2023-05-19T00:01:48;35.32;32.10;42.27;;
186;Laerm;55473;48.800;9.002;2023-05-19T00:04:14;35.03;32.69;42.22;;
186;Laerm;55473;48.800;9.002;2023-05-19T00:06:41;34.41;32.70;42.95;;
186;Laerm;55473;48.800;9.002;2023-05-19T00:09:10;34.78;32.28;42.26;;
186;Laerm;55473;48.800;9.002;2023-05-19T00:11:38;34.63;32.19;41.94;;
186;Laerm;55473;48.800;9.002;2023-05-19T00:14:07;34.13;32.42;41.51;;
186;Laerm;55473;48.800;9.002;2023-05-19T00:16:35;34.69;32.62;40.00;;
186;Laerm;55473;48.800;9.002;2023-05-19T00:19:04;34.32;32.48;40.91;;
186;Laerm;55473;48.800;9.002;2023-05-19T00:21:31;34.51;32.64;42.06;;
186;Laerm;55473;48.800;9.002;2023-05-19T00:23:58;37.79;32.71;45.53;;
186;Laerm;55473;48.800;9.002;2023-05-19T00:26:26;34.66;32.63;41.74;;
186;Laerm;55473;48.800;9.002;2023-05-19T00:28:53;34.30;32.75;43.48;;
186;Laerm;55473;48.800;9.002;2023-05-19T00:31:18;35.08;32.37;42.94;;
186;Laerm;55473;48.800;9.002;2023-05-19T00:33:45;36.05;32.61;61.01;;
186;Laerm;55473;48.800;9.002;2023-05-19T00:36:11;34.12;31.99;42.28;;
186;Laerm;55473;48.800;9.002;2023-05-19T00:38:38;34.45;32.57;43.42;;
186;Laerm;55473;48.800;9.002;2023-05-19T00:41:05;35.79;32.71;48.15;;
186;Laerm;55473;48.800;9.002;2023-05-19T00:43:32;34.62;32.47;43.05;;
186;Laerm;55473;48.800;9.002;2023-05-19T00:46:01;34.54;32.30;41.46;;
186;Laerm;55473;48.800;9.002;2023-05-19T00:48:27;34.16;32.39;42.25;;
186;Laerm;55473;48.800;9.002;2023-05-19T00:50:56;34.44;32.35;41.96;;
186;Laerm;55473;48.800;9.002;2023-05-19T00:53:31;34.66;32.29;42.70;;
186;Laerm;55473;48.800;9.002;2023-05-19T00:55:58;34.41;32.63;40.09;;
186;Laerm;55473;48.800;9.002;2023-05-19T00:58:25;34.14;31.99;43.59;;
186;Laerm;55473;48.800;9.002;2023-05-19T01:00:59;34.51;32.34;40.29;;
186;Laerm;55473;48.800;9.002;2023-05-19T01:03:33;34.22;32.62;40.19;;
186;Laerm;55473;48.800;9.002;2023-05-19T01:06:03;34.45;32.61;42.12;;
186;Laerm;55473;48.800;9.002;2023-05-19T01:08:37;34.53;32.70;40.18;;
186;Laerm;55473;48.800;9.002;2023-05-19T01:11:04;34.21;32.17;40.74;;
186;Laerm;55473;48.800;9.002;2023-05-19T01:13:32;34.27;32.50;43.41;;
186;Laerm;55473;48.800;9.002;2023-05-19T01:16:26;34.77;32.45;42.11;;
186;Laerm;55473;48.800;9.002;2023-05-19T01:25:44;35.41;33.09;43.25;;
186;Laerm;55473;48.800;9.002;2023-05-19T01:30:55;35.74;33.07;43.91;;
186;Laerm;55473;48.800;9.002;2023-05-19T01:33:23;34.89;33.09;44.63;;
186;Laerm;55473;48.800;9.002;2023-05-19T01:35:50;35.24;33.27;42.28;;
186;Laerm;55473;48.800;9.002;2023-05-19T01:38:20;34.72;32.71;41.49;;
186;Laerm;55473;48.800;9.002;2023-05-19T01:40:49;34.63;32.75;42.97;;
186;Laerm;55473;48.800;9.002;2023-05-19T01:43:21;34.64;32.70;41.28;;
186;Laerm;55473;48.800;9.002;2023-05-19T01:45:50;36.07;32.50;46.47;;
186;Laerm;55473;48.800;9.002;2023-05-19T01:48:18;35.69;33.14;47.49;;
186;Laerm;55473;48.800;9.002;2023-05-19T01:50:45;36.82;32.99;49.55;;
186;Laerm;55473;48.800;9.002;2023-05-19T01:53:11;37.69;32.99;52.53;;
186;Laerm;55473;48.800;9.002;2023-05-19T01:55:47;37.49;34.27;50.23;;
186;Laerm;55473;48.800;9.002;2023-05-19T02:01:56;37.47;33.37;48.44;;
186;Laerm;55473;48.800;9.002;2023-05-19T02:04:43;42.12;33.52;55.11;;
186;Laerm;55473;48.800;9.002;2023-05-19T02:10:13;35.95;33.41;46.67;;
186;Laerm;55473;48.800;9.002;2023-05-19T02:12:44;36.05;33.08;45.23;;
186;Laerm;55473;48.800;9.002;2023-05-19T02:15:18;35.34;32.72;44.04;;
186;Laerm;55473;48.800;9.002;2023-05-19T02:17:47;35.86;33.15;42.94;;
186;Laerm;55473;48.800;9.002;2023-05-19T02:20:17;36.76;33.48;44.06;;
186;Laerm;55473;48.800;9.002;2023-05-19T02:22:43;40.05;33.44;53.04;;
186;Laerm;55473;48.800;9.002;2023-05-19T02:25:10;55.58;33.59;66.31;;
186;Laerm;55473;48.800;9.002;2023-05-19T02:27:37;38.93;33.92;50.91;;
186;Laerm;55473;48.800;9.002;2023-05-19T02:30:05;43.07;34.88;55.14;;
186;Laerm;55473;48.800;9.002;2023-05-19T02:32:31;37.66;33.79;48.30;;
186;Laerm;55473;48.800;9.002;2023-05-19T02:34:57;37.61;34.24;53.24;;
186;Laerm;55473;48.800;9.002;2023-05-19T02:37:24;38.47;34.58;53.67;;
186;Laerm;55473;48.800;9.002;2023-05-19T02:39:53;40.84;34.96;57.28;;
186;Laerm;55473;48.800;9.002;2023-05-19T02:42:20;42.78;34.90;60.15;;
186;Laerm;55473;48.800;9.002;2023-05-19T02:44:46;51.18;36.21;65.99;;
186;Laerm;55473;48.800;9.002;2023-05-19T02:47:12;53.43;35.77;67.47;;
186;Laerm;55473;48.800;9.002;2023-05-19T02:49:38;57.70;36.59;74.23;;
186;Laerm;55473;48.800;9.002;2023-05-19T02:52:05;58.88;35.35;76.42;;
186;Laerm;55473;48.800;9.002;2023-05-19T02:54:33;56.56;36.26;75.09;;
186;Laerm;55473;48.800;9.002;2023-05-19T02:57:00;52.02;37.64;63.88;;
186;Laerm;55473;48.800;9.002;2023-05-19T02:59:25;52.84;37.95;66.83;;
186;Laerm;55473;48.800;9.002;2023-05-19T03:01:57;53.67;37.50;66.54;;
186;Laerm;55473;48.800;9.002;2023-05-19T03:04:28;54.17;38.99;67.60;;
186;Laerm;55473;48.800;9.002;2023-05-19T03:06:55;55.07;40.68;66.77;;
186;Laerm;55473;48.800;9.002;2023-05-19T03:09:21;56.56;38.95;71.11;;
186;Laerm;55473;48.800;9.002;2023-05-19T03:11:47;55.78;39.77;67.90;;
186;Laerm;55473;48.800;9.002;2023-05-19T03:14:13;55.06;42.69;67.23;;
186;Laerm;55473;48.800;9.002;2023-05-19T03:16:40;55.62;41.31;67.90;;
186;Laerm;55473;48.800;9.002;2023-05-19T03:19:09;56.12;40.98;67.10;;
186;Laerm;55473;48.800;9.002;2023-05-19T03:21:35;57.15;40.21;68.38;;
186;Laerm;55473;48.800;9.002;2023-05-19T03:24:01;55.87;39.50;66.22;;
186;Laerm;55473;48.800;9.002;2023-05-19T03:26:27;56.23;38.24;66.90;;
186;Laerm;55473;48.800;9.002;2023-05-19T03:28:54;53.18;39.38;65.47;;
186;Laerm;55473;48.800;9.002;2023-05-19T03:31:20;50.84;39.69;64.44;;
186;Laerm;55473;48.800;9.002;2023-05-19T03:33:46;51.41;39.39;64.06;;
186;Laerm;55473;48.800;9.002;2023-05-19T03:36:12;50.29;38.76;61.97;;
186;Laerm;55473;48.800;9.002;2023-05-19T03:38:38;50.93;39.47;62.16;;
186;Laerm;55473;48.800;9.002;2023-05-19T03:41:03;49.39;38.01;61.67;;
186;Laerm;55473;48.800;9.002;2023-05-19T03:43:30;51.13;39.26;61.83;;
186;Laerm;55473;48.800;9.002;2023-05-19T03:45:55;50.80;37.80;63.06;;
186;Laerm;55473;48.800;9.002;2023-05-19T03:48:22;51.36;39.24;62.49;;
186;Laerm;55473;48.800;9.002;2023-05-19T03:50:48;51.01;37.48;68.38;;
186;Laerm;55473;48.800;9.002;2023-05-19T03:53:14;50.33;37.29;67.45;;
186;Laerm;55473;48.800;9.002;2023-05-19T03:55:40;48.80;38.16;61.40;;
186;Laerm;55473;48.800;9.002;2023-05-19T03:58:06;48.99;37.86;61.87;;
186;Laerm;55473;48.800;9.002;2023-05-19T04:00:32;45.64;36.63;61.80;;
186;Laerm;55473;48.800;9.002;2023-05-19T04:02:58;47.70;37.12;58.19;;
186;Laerm;55473;48.800;9.002;2023-05-19T04:05:25;49.68;39.51;64.64;;
186;Laerm;55473;48.800;9.002;2023-05-19T04:07:51;56.75;37.46;77.15;;
186;Laerm;55473;48.800;9.002;2023-05-19T04:10:17;51.88;38.25;65.66;;
186;Laerm;55473;48.800;9.002;2023-05-19T04:12:44;48.82;38.56;63.01;;
186;Laerm;55473;48.800;9.002;2023-05-19T04:15:10;49.75;39.08;63.16;;
186;Laerm;55473;48.800;9.002;2023-05-19T04:17:37;49.99;38.55;62.12;;
186;Laerm;55473;48.800;9.002;2023-05-19T04:20:04;49.38;38.22;64.71;;
186;Laerm;55473;48.800;9.002;2023-05-19T04:22:31;49.43;38.39;62.58;;
186;Laerm;55473;48.800;9.002;2023-05-19T04:24:57;48.56;38.91;63.25;;
186;Laerm;55473;48.800;9.002;2023-05-19T04:27:23;49.35;38.69;62.39;;
186;Laerm;55473;48.800;9.002;2023-05-19T04:29:50;50.23;38.08;61.34;;
186;Laerm;55473;48.800;9.002;2023-05-19T04:32:17;49.92;37.88;60.92;;
186;Laerm;55473;48.800;9.002;2023-05-19T04:34:43;49.21;38.01;61.21;;
186;Laerm;55473;48.800;9.002;2023-05-19T04:37:12;50.91;37.27;63.88;;
186;Laerm;55473;48.800;9.002;2023-05-19T04:39:41;49.14;37.17;61.09;;
186;Laerm;55473;48.800;9.002;2023-05-19T04:42:09;49.17;37.67;62.49;;
186;Laerm;55473;48.800;9.002;2023-05-19T04:44:39;49.80;37.97;62.02;;
186;Laerm;55473;48.800;9.002;2023-05-19T04:47:08;49.39;37.24;61.54;;
186;Laerm;55473;48.800;9.002;2023-05-19T04:49:35;48.52;38.54;61.48;;
186;Laerm;55473;48.800;9.002;2023-05-19T04:52:08;48.40;38.63;64.49;;
186;Laerm;55473;48.800;9.002;2023-05-19T04:54:38;51.91;37.05;76.58;;
186;Laerm;55473;48.800;9.002;2023-05-19T04:57:05;42.61;38.52;50.61;;
186;Laerm;55473;48.800;9.002;2023-05-19T04:59:31;46.48;38.66;61.24;;
186;Laerm;55473;48.800;9.002;2023-05-19T05:01:57;45.19;38.71;56.72;;
186;Laerm;55473;48.800;9.002;2023-05-19T05:04:23;50.11;41.64;59.20;;
186;Laerm;55473;48.800;9.002;2023-05-19T05:06:49;46.49;39.57;61.60;;
186;Laerm;55473;48.800;9.002;2023-05-19T05:09:16;45.40;40.10;60.54;;
186;Laerm;55473;48.800;9.002;2023-05-19T05:11:43;51.93;39.96;67.47;;
186;Laerm;55473;48.800;9.002;2023-05-19T05:14:10;55.49;38.76;68.16;;
186;Laerm;55473;48.800;9.002;2023-05-19T05:16:36;53.67;38.56;67.21;;
186;Laerm;55473;48.800;9.002;2023-05-19T05:19:02;55.42;39.70;68.37;;
186;Laerm;55473;48.800;9.002;2023-05-19T05:21:28;50.66;40.93;68.29;;
186;Laerm;55473;48.800;9.002;2023-05-19T05:23:56;48.16;38.52;62.81;;
186;Laerm;55473;48.800;9.002;2023-05-19T05:26:29;48.72;39.35;62.13;;
186;Laerm;55473;48.800;9.002;2023-05-19T05:28:56;51.20;40.03;69.50;;
186;Laerm;55473;48.800;9.002;2023-05-19T05:31:22;49.37;41.07;62.25;;
186;Laerm;55473;48.800;9.002;2023-05-19T05:33:48;50.51;40.88;61.99;;
186;Laerm;55473;48.800;9.002;2023-05-19T05:36:13;50.01;39.32;65.43;;
186;Laerm;55473;48.800;9.002;2023-05-19T05:38:39;53.59;39.98;71.08;;
186;Laerm;55473;48.800;9.002;2023-05-19T05:41:05;54.44;38.96;68.30;;
186;Laerm;55473;48.800;9.002;2023-05-19T05:43:31;50.61;39.81;64.55;;
186;Laerm;55473;48.800;9.002;2023-05-19T05:45:57;50.28;39.34;61.66;;
186;Laerm;55473;48.800;9.002;2023-05-19T05:48:23;50.84;40.04;62.44;;
186;Laerm;55473;48.800;9.002;2023-05-19T05:50:49;48.64;38.36;62.36;;
186;Laerm;55473;48.800;9.002;2023-05-19T05:53:19;49.26;37.63;62.59;;
186;Laerm;55473;48.800;9.002;2023-05-19T05:55:47;49.35;38.59;62.32;;
186;Laerm;55473;48.800;9.002;2023-05-19T05:58:13;50.20;37.88;62.74;;
186;Laerm;55473;48.800;9.002;2023-05-19T06:00:41;51.79;39.21;63.25;;
186;Laerm;55473;48.800;9.002;2023-05-19T06:03:12;52.52;39.43;63.56;;
186;Laerm;55473;48.800;9.002;2023-05-19T06:05:39;48.51;38.10;62.24;;
186;Laerm;55473;48.800;9.002;2023-05-19T06:08:05;49.00;38.99;62.08;;
186;Laerm;55473;48.800;9.002;2023-05-19T06:10:31;50.78;39.49;63.18;;
186;Laerm;55473;48.800;9.002;2023-05-19T06:12:57;49.94;39.20;63.40;;
186;Laerm;55473;48.800;9.002;2023-05-19T06:15:23;51.79;42.04;76.27;;
186;Laerm;55473;48.800;9.002;2023-05-19T06:17:49;55.19;39.20;68.87;;
186;Laerm;55473;48.800;9.002;2023-05-19T06:20:16;52.16;41.14;67.00;;
186;Laerm;55473;48.800;9.002;2023-05-19T06:22:42;49.87;36.54;65.71;;
186;Laerm;55473;48.800;9.002;2023-05-19T06:25:08;50.81;37.35;65.29;;
186;Laerm;55473;48.800;9.002;2023-05-19T06:27:35;50.58;37.55;65.48;;
186;Laerm;55473;48.800;9.002;2023-05-19T06:30:01;51.16;37.42;65.23;;
186;Laerm;55473;48.800;9.002;2023-05-19T06:32:27;50.73;37.38;64.82;;
186;Laerm;55473;48.800;9.002;2023-05-19T06:34:54;46.79;38.19;61.66;;
186;Laerm;55473;48.800;9.002;2023-05-19T06:37:21;50.26;38.30;66.62;;
186;Laerm;55473;48.800;9.002;2023-05-19T06:39:52;49.20;38.15;61.84;;
186;Laerm;55473;48.800;9.002;2023-05-19T06:42:21;49.21;37.14;62.73;;
186;Laerm;55473;48.800;9.002;2023-05-19T06:44:48;49.97;36.90;64.02;;
186;Laerm;55473;48.800;9.002;2023-05-19T06:47:15;50.60;38.44;63.08;;
186;Laerm;55473;48.800;9.002;2023-05-19T06:49:41;50.23;38.67;62.47;;
186;Laerm;55473;48.800;9.002;2023-05-19T06:52:07;55.22;38.35;64.84;;
186;Laerm;55473;48.800;9.002;2023-05-19T06:54:33;54.68;37.74;70.41;;
186;Laerm;55473;48.800;9.002;2023-05-19T06:56:59;54.43;39.16;68.74;;
186;Laerm;55473;48.800;9.002;2023-05-19T06:59:25;54.46;39.43;69.21;;
186;Laerm;55473;48.800;9.002;2023-05-19T07:01:51;54.96;38.42;70.48;;
186;Laerm;55473;48.800;9.002;2023-05-19T07:04:17;50.46;38.47;64.66;;
186;Laerm;55473;48.800;9.002;2023-05-19T07:06:43;45.30;39.12;58.95;;
186;Laerm;55473;48.800;9.002;2023-05-19T07:09:09;49.28;37.57;65.83;;
186;Laerm;55473;48.800;9.002;2023-05-19T07:11:35;48.19;36.17;61.76;;
186;Laerm;55473;48.800;9.002;2023-05-19T07:14:00;50.98;37.39;62.56;;
186;Laerm;55473;48.800;9.002;2023-05-19T07:16:26;49.50;37.67;62.76;;
186;Laerm;55473;48.800;9.002;2023-05-19T07:18:52;49.17;37.87;65.11;;
186;Laerm;55473;48.800;9.002;2023-05-19T07:21:18;49.22;37.90;66.71;;
186;Laerm;55473;48.800;9.002;2023-05-19T07:23:44;49.53;37.42;64.51;;
186;Laerm;55473;48.800;9.002;2023-05-19T07:26:10;49.05;37.88;62.74;;
186;Laerm;55473;48.800;9.002;2023-05-19T07:28:36;46.01;37.98;59.86;;
186;Laerm;55473;48.800;9.002;2023-05-19T07:31:02;44.42;38.54;54.24;;
186;Laerm;55473;48.800;9.002;2023-05-19T07:33:28;51.35;37.96;64.69;;
186;Laerm;55473;48.800;9.002;2023-05-19T07:35:54;44.50;36.92;62.75;;
186;Laerm;55473;48.800;9.002;2023-05-19T07:38:20;47.98;37.08;61.85;;
186;Laerm;55473;48.800;9.002;2023-05-19T07:40:46;43.18;37.55;59.77;;
186;Laerm;55473;48.800;9.002;2023-05-19T07:43:12;45.80;38.40;58.52;;
186;Laerm;55473;48.800;9.002;2023-05-19T07:45:38;47.95;38.89;72.47;;
186;Laerm;55473;48.800;9.002;2023-05-19T07:48:04;46.87;37.95;72.62;;
186;Laerm;55473;48.800;9.002;2023-05-19T07:50:29;43.76;37.95;67.38;;
186;Laerm;55473;48.800;9.002;2023-05-19T07:52:55;45.98;38.26;66.30;;
186;Laerm;55473;48.800;9.002;2023-05-19T07:55:21;44.23;37.67;59.27;;
186;Laerm;55473;48.800;9.002;2023-05-19T07:57:49;45.03;36.46;59.03;;
186;Laerm;55473;48.800;9.002;2023-05-19T08:00:15;51.33;40.15;65.26;;
186;Laerm;55473;48.800;9.002;2023-05-19T08:02:43;52.74;39.53;69.21;;
186;Laerm;55473;48.800;9.002;2023-05-19T08:05:09;50.97;39.57;66.37;;
186;Laerm;55473;48.800;9.002;2023-05-19T08:07:35;50.79;40.15;72.79;;
186;Laerm;55473;48.800;9.002;2023-05-19T08:10:02;49.22;43.29;59.53;;
186;Laerm;55473;48.800;9.002;2023-05-19T08:12:28;55.07;43.50;67.23;;
186;Laerm;55473;48.800;9.002;2023-05-19T08:14:54;49.70;41.44;64.56;;
186;Laerm;55473;48.800;9.002;2023-05-19T08:17:20;51.02;40.53;66.39;;
186;Laerm;55473;48.800;9.002;2023-05-19T08:19:46;47.57;39.03;63.93;;
186;Laerm;55473;48.800;9.002;2023-05-19T08:22:12;48.97;38.70;63.07;;
186;Laerm;55473;48.800;9.002;2023-05-19T08:24:38;51.09;38.69;68.68;;
186;Laerm;55473;48.800;9.002;2023-05-19T08:27:06;47.83;37.92;63.79;;
186;Laerm;55473;48.800;9.002;2023-05-19T08:29:31;51.15;39.03;66.83;;
186;Laerm;55473;48.800;9.002;2023-05-19T08:31:57;51.82;39.36;67.27;;
186;Laerm;55473;48.800;9.002;2023-05-19T08:34:24;53.36;38.97;68.98;;
186;Laerm;55473;48.800;9.002;2023-05-19T08:36:50;53.14;39.27;67.88;;
186;Laerm;55473;48.800;9.002;2023-05-19T08:39:16;50.69;39.19;66.32;;
186;Laerm;55473;48.800;9.002;2023-05-19T08:41:44;51.75;39.20;65.94;;
186;Laerm;55473;48.800;9.002;2023-05-19T08:44:10;52.84;41.28;66.20;;
186;Laerm;55473;48.800;9.002;2023-05-19T08:46:36;52.05;40.13;67.43;;
186;Laerm;55473;48.800;9.002;2023-05-19T08:49:10;52.45;39.70;67.17;;
186;Laerm;55473;48.800;9.002;2023-05-19T08:55:01;44.57;38.86;60.84;;
186;Laerm;55473;48.800;9.002;2023-05-19T08:57:29;46.44;39.08;59.87;;
186;Laerm;55473;48.800;9.002;2023-05-19T08:59:56;50.29;40.93;65.96;;
186;Laerm;55473;48.800;9.002;2023-05-19T09:02:23;49.51;40.32;62.34;;
186;Laerm;55473;48.800;9.002;2023-05-19T09:04:50;49.81;41.66;59.79;;
186;Laerm;55473;48.800;9.002;2023-05-19T09:07:17;45.90;39.37;57.29;;
186;Laerm;55473;48.800;9.002;2023-05-19T09:09:44;49.22;39.52;61.34;;
186;Laerm;55473;48.800;9.002;2023-05-19T09:12:12;50.50;39.80;63.69;;
186;Laerm;55473;48.800;9.002;2023-05-19T09:14:39;51.62;39.53;64.11;;
186;Laerm;55473;48.800;9.002;2023-05-19T09:17:05;49.44;38.59;65.02;;
186;Laerm;55473;48.800;9.002;2023-05-19T09:19:32;51.02;41.55;64.72;;
186;Laerm;55473;48.800;9.002;2023-05-19T09:21:59;50.31;40.70;64.31;;
186;Laerm;55473;48.800;9.002;2023-05-19T09:24:26;52.78;40.23;67.77;;
186;Laerm;55473;48.800;9.002;2023-05-19T09:26:55;50.78;39.46;67.38;;
186;Laerm;55473;48.800;9.002;2023-05-19T09:29:24;46.57;39.86;59.96;;
186;Laerm;55473;48.800;9.002;2023-05-19T09:31:53;49.92;41.70;59.38;;
186;Laerm;55473;48.800;9.002;2023-05-19T09:34:21;48.29;43.93;58.98;;
186;Laerm;55473;48.800;9.002;2023-05-19T09:36:50;46.66;43.29;54.64;;
186;Laerm;55473;48.800;9.002;2023-05-19T09:39:22;51.65;43.67;68.72;;
186;Laerm;55473;48.800;9.002;2023-05-19T09:41:53;49.88;42.57;62.37;;
186;Laerm;55473;48.800;9.002;2023-05-19T09:44:22;49.92;44.00;68.44;;
186;Laerm;55473;48.800;9.002;2023-05-19T09:46:52;49.97;43.42;63.18;;
186;Laerm;55473;48.800;9.002;2023-05-19T09:49:27;52.86;42.38;67.15;;
186;Laerm;55473;48.800;9.002;2023-05-19T09:52:00;52.27;39.80;67.23;;
186;Laerm;55473;48.800;9.002;2023-05-19T09:54:29;48.72;42.77;67.19;;
186;Laerm;55473;48.800;9.002;2023-05-19T09:57:03;51.47;41.95;65.25;;
186;Laerm;55473;48.800;9.002;2023-05-19T09:59:30;47.53;38.94;60.62;;
186;Laerm;55473;48.800;9.002;2023-05-19T10:01:58;52.80;39.67;66.91;;
186;Laerm;55473;48.800;9.002;2023-05-19T10:04:29;52.46;41.53;72.57;;
186;Laerm;55473;48.800;9.002;2023-05-19T10:06:57;51.48;40.59;63.13;;
186;Laerm;55473;48.800;9.002;2023-05-19T10:09:30;49.50;40.46;64.78;;
186;Laerm;55473;48.800;9.002;2023-05-19T10:11:59;44.65;38.67;55.84;;
186;Laerm;55473;48.800;9.002;2023-05-19T10:14:28;50.21;39.71;66.13;;
186;Laerm;55473;48.800;9.002;2023-05-19T10:16:56;49.87;40.37;61.22;;
186;Laerm;55473;48.800;9.002;2023-05-19T10:19:26;45.17;40.65;58.26;;
186;Laerm;55473;48.800;9.002;2023-05-19T10:21:53;44.74;39.68;60.84;;
186;Laerm;55473;48.800;9.002;2023-05-19T10:24:19;46.48;39.91;64.52;;
186;Laerm;55473;48.800;9.002;2023-05-19T10:27:07;44.12;38.18;55.89;;
186;Laerm;55473;48.800;9.002;2023-05-19T10:29:39;43.41;39.00;54.94;;
186;Laerm;55473;48.800;9.002;2023-05-19T10:32:15;49.72;39.34;62.88;;
186;Laerm;55473;48.800;9.002;2023-05-19T10:41:21;48.90;38.70;68.29;;
186;Laerm;55473;48.800;9.002;2023-05-19T10:44:10;49.59;38.79;62.71;;
186;Laerm;55473;48.800;9.002;2023-05-19T10:46:40;48.75;38.32;62.07;;
186;Laerm;55473;48.800;9.002;2023-05-19T10:49:07;52.30;40.55;67.59;;
186;Laerm;55473;48.800;9.002;2023-05-19T10:51:33;51.56;38.15;66.50;;
186;Laerm;55473;48.800;9.002;2023-05-19T10:54:02;50.09;40.31;64.68;;
186;Laerm;55473;48.800;9.002;2023-05-19T10:56:33;47.04;40.61;59.96;;
186;Laerm;55473;48.800;9.002;2023-05-19T10:59:02;49.10;41.19;62.72;;
186;Laerm;55473;48.800;9.002;2023-05-19T11:01:34;49.13;39.38;62.50;;
186;Laerm;55473;48.800;9.002;2023-05-19T11:04:07;46.89;39.70;58.58;;
186;Laerm;55473;48.800;9.002;2023-05-19T11:06:37;50.00;40.61;64.01;;
186;Laerm;55473;48.800;9.002;2023-05-19T11:09:14;47.22;39.21;62.08;;
186;Laerm;55473;48.800;9.002;2023-05-19T11:11:53;50.83;40.44;64.49;;
186;Laerm;55473;48.800;9.002;2023-05-19T11:14:25;52.04;40.65;66.57;;
186;Laerm;55473;48.800;9.002;2023-05-19T11:16:56;54.53;41.18;67.41;;
186;Laerm;55473;48.800;9.002;2023-05-19T11:19:34;54.73;41.32;68.71;;
186;Laerm;55473;48.800;9.002;2023-05-19T11:22:11;55.04;39.94;70.10;;
186;Laerm;55473;48.800;9.002;2023-05-19T11:24:45;55.36;40.74;71.07;;
186;Laerm;55473;48.800;9.002;2023-05-19T11:27:27;50.54;38.32;68.82;;
186;Laerm;55473;48.800;9.002;2023-05-19T11:30:01;45.41;38.88;53.79;;
186;Laerm;55473;48.800;9.002;2023-05-19T11:32:34;44.96;38.34;56.20;;
186;Laerm;55473;48.800;9.002;2023-05-19T11:35:04;49.15;40.40;65.82;;
186;Laerm;55473;48.800;9.002;2023-05-19T11:37:33;50.99;40.15;64.54;;
186;Laerm;55473;48.800;9.002;2023-05-19T11:40:05;50.18;38.09;65.49;;
186;Laerm;55473;48.800;9.002;2023-05-19T11:42:35;50.59;39.77;63.69;;
186;Laerm;55473;48.800;9.002;2023-05-19T11:45:03;51.54;40.45;64.04;;
186;Laerm;55473;48.800;9.002;2023-05-19T11:47:31;50.51;40.88;63.39;;
186;Laerm;55473;48.800;9.002;2023-05-19T11:49:59;47.70;40.49;68.36;;
186;Laerm;55473;48.800;9.002;2023-05-19T11:52:26;45.17;39.40;63.98;;
186;Laerm;55473;48.800;9.002;2023-05-19T11:54:52;44.44;38.61;52.56;;
186;Laerm;55473;48.800;9.002;2023-05-19T11:57:19;45.34;38.43;54.93;;
186;Laerm;55473;48.800;9.002;2023-05-19T11:59:45;48.42;38.60;61.94;;
186;Laerm;55473;48.800;9.002;2023-05-19T12:02:21;52.68;39.16;74.95;;
186;Laerm;55473;48.800;9.002;2023-05-19T12:04:50;49.51;39.01;68.54;;
186;Laerm;55473;48.800;9.002;2023-05-19T12:07:22;45.95;38.72;66.63;;
186;Laerm;55473;48.800;9.002;2023-05-19T12:09:51;44.62;38.47;58.09;;
186;Laerm;55473;48.800;9.002;2023-05-19T12:12:21;45.30;38.71;60.97;;
186;Laerm;55473;48.800;9.002;2023-05-19T12:14:50;49.61;39.20;66.66;;
186;Laerm;55473;48.800;9.002;2023-05-19T12:17:19;50.18;39.53;63.05;;
186;Laerm;55473;48.800;9.002;2023-05-19T12:19:47;45.87;39.95;64.44;;
186;Laerm;55473;48.800;9.002;2023-05-19T12:22:16;46.83;40.20;64.64;;
186;Laerm;55473;48.800;9.002;2023-05-19T12:24:43;44.49;40.22;56.27;;
186;Laerm;55473;48.800;9.002;2023-05-19T12:27:18;45.77;39.70;56.54;;
186;Laerm;55473;48.800;9.002;2023-05-19T12:29:55;47.41;39.63;61.09;;
186;Laerm;55473;48.800;9.002;2023-05-19T12:32:27;47.68;39.02;68.10;;
186;Laerm;55473;48.800;9.002;2023-05-19T12:34:57;46.20;38.95;60.45;;
186;Laerm;55473;48.800;9.002;2023-05-19T12:37:26;46.55;39.19;59.69;;
186;Laerm;55473;48.800;9.002;2023-05-19T12:39:58;47.51;40.29;61.93;;
186;Laerm;55473;48.800;9.002;2023-05-19T12:42:29;47.21;40.41;61.32;;
186;Laerm;55473;48.800;9.002;2023-05-19T12:45:02;47.93;40.73;58.10;;
186;Laerm;55473;48.800;9.002;2023-05-19T12:47:34;48.44;39.62;60.44;;
186;Laerm;55473;48.800;9.002;2023-05-19T12:50:08;46.29;40.12;61.13;;
186;Laerm;55473;48.800;9.002;2023-05-19T12:52:44;45.76;39.23;60.94;;
186;Laerm;55473;48.800;9.002;2023-05-19T12:55:11;53.50;42.73;64.09;;
186;Laerm;55473;48.800;9.002;2023-05-19T12:57:40;48.57;42.79;61.18;;
186;Laerm;55473;48.800;9.002;2023-05-19T13:00:20;48.51;43.35;64.72;;
186;Laerm;55473;48.800;9.002;2023-05-19T13:03:04;47.84;39.68;57.33;;
186;Laerm;55473;48.800;9.002;2023-05-19T13:05:34;49.19;41.09;65.26;;
186;Laerm;55473;48.800;9.002;2023-05-19T13:08:09;48.35;38.24;61.70;;
186;Laerm;55473;48.800;9.002;2023-05-19T13:10:38;42.95;38.69;52.63;;
186;Laerm;55473;48.800;9.002;2023-05-19T13:13:07;42.92;37.79;52.67;;
186;Laerm;55473;48.800;9.002;2023-05-19T13:15:36;42.58;37.44;52.78;;
186;Laerm;55473;48.800;9.002;2023-05-19T13:18:06;49.30;38.16;61.69;;
186;Laerm;55473;48.800;9.002;2023-05-19T13:20:34;50.43;39.85;72.32;;
186;Laerm;55473;48.800;9.002;2023-05-19T13:23:02;48.78;37.08;68.89;;
186;Laerm;55473;48.800;9.002;2023-05-19T13:25:29;48.88;37.50;64.52;;
186;Laerm;55473;48.800;9.002;2023-05-19T13:27:55;52.31;38.59;67.39;;
186;Laerm;55473;48.800;9.002;2023-05-19T13:30:23;52.24;40.07;66.88;;
186;Laerm;55473;48.800;9.002;2023-05-19T13:32:50;50.66;38.07;67.00;;
186;Laerm;55473;48.800;9.002;2023-05-19T13:35:20;49.79;39.26;67.99;;
186;Laerm;55473;48.800;9.002;2023-05-19T13:37:46;48.90;38.30;73.79;;
186;Laerm;55473;48.800;9.002;2023-05-19T13:40:12;52.19;39.70;75.44;;
186;Laerm;55473;48.800;9.002;2023-05-19T13:42:39;64.57;51.04;76.21;;
186;Laerm;55473;48.800;9.002;2023-05-19T13:45:06;57.89;46.28;72.28;;
186;Laerm;55473;48.800;9.002;2023-05-19T13:47:32;61.39;43.92;74.96;;
186;Laerm;55473;48.800;9.002;2023-05-19T13:49:58;63.06;47.64;72.76;;
186;Laerm;55473;48.800;9.002;2023-05-19T13:52:25;52.97;44.50;78.14;;
186;Laerm;55473;48.800;9.002;2023-05-19T13:54:51;55.94;44.12;71.31;;
186;Laerm;55473;48.800;9.002;2023-05-19T13:57:19;51.20;39.37;73.73;;
186;Laerm;55473;48.800;9.002;2023-05-19T13:59:45;53.14;40.60;71.88;;
186;Laerm;55473;48.800;9.002;2023-05-19T14:02:11;51.16;40.02;68.23;;
186;Laerm;55473;48.800;9.002;2023-05-19T14:04:38;54.87;38.54;80.29;;
186;Laerm;55473;48.800;9.002;2023-05-19T14:07:07;53.27;38.60;80.99;;
186;Laerm;55473;48.800;9.002;2023-05-19T14:09:35;47.52;38.75;64.51;;
186;Laerm;55473;48.800;9.002;2023-05-19T14:12:01;46.33;38.01;72.88;;
186;Laerm;55473;48.800;9.002;2023-05-19T14:14:27;51.44;39.30;79.18;;
186;Laerm;55473;48.800;9.002;2023-05-19T14:16:53;56.47;40.53;77.41;;
186;Laerm;55473;48.800;9.002;2023-05-19T14:19:19;49.05;39.59;60.87;;
186;Laerm;55473;48.800;9.002;2023-05-19T14:21:45;52.21;38.67;78.15;;
186;Laerm;55473;48.800;9.002;2023-05-19T14:24:11;49.66;38.79;66.27;;
186;Laerm;55473;48.800;9.002;2023-05-19T14:26:37;50.42;38.51;65.42;;
186;Laerm;55473;48.800;9.002;2023-05-19T14:29:02;52.19;39.74;78.52;;
186;Laerm;55473;48.800;9.002;2023-05-19T14:31:28;48.37;38.63;66.25;;
186;Laerm;55473;48.800;9.002;2023-05-19T14:33:54;52.28;39.99;78.81;;
186;Laerm;55473;48.800;9.002;2023-05-19T14:36:20;49.97;39.31;65.95;;
186;Laerm;55473;48.800;9.002;2023-05-19T14:38:46;50.99;40.66;73.43;;
186;Laerm;55473;48.800;9.002;2023-05-19T14:41:12;52.73;40.35;75.92;;